»·PEaware :: N618AB KSNA-KHND

N618AB :: KSNA-KHND

FLIGHT INFORMATION

Flight Status: Arrived
Operator: Privately registered:
United States
More flights under this callsign
Pilot: Saso Kiselkov (7898)
Aircraft: BEECH AIRCRAFT BEECH AIRLINER
(B190)
More flights by this aircraft type
Origin: KSNA John Wayne-Orange Co
United States
Destination: KHND Henderson
United States
More flights between these airports :: More routes between these airports
Route: MUSEL8 DAG V587 BLD
File this flight plan on PilotEdge
Remarks:
Altitude:
(Current/Filed)
21,000ft
Speed:
(Current/Filed)
260kts
Departed: 24-Dec-16 04:28 PM
Arrived: 24-Dec-16 05:25 PM
Distance/Time
Traveled:
193nm/0:57
Distance/Time
To Go:
Arrived

Flight Plot

Page will automatically refresh every two minutes.

Flight plan parsing failed; only flown route is shown


Map Options




Map Legend


Flown Route
Filed Route
Departure Airport
Arrival Airport
Navaid (VOR, NDB)
Fix

Horizontal Profiles

Position Reports

Time Latitude Longitude Heading Altitude Ground
Speed
24-Dec-16 16:00 33.671114 -117.867656 18 51ft 0kts
24-Dec-16 16:01 33.671114 -117.867656 18 51ft 0kts
24-Dec-16 16:02 33.671114 -117.867656 18 51ft 0kts
24-Dec-16 16:03 33.671114 -117.867656 18 51ft 0kts
24-Dec-16 16:04 33.671114 -117.867656 18 51ft 0kts
24-Dec-16 16:05 33.671114 -117.867656 18 51ft 0kts
24-Dec-16 16:06 33.671114 -117.867656 18 51ft 0kts
24-Dec-16 16:07 33.671114 -117.867656 18 51ft 0kts
24-Dec-16 16:08 33.671114 -117.867656 18 51ft 0kts
24-Dec-16 16:09 33.671114 -117.867656 18 51ft 0kts
24-Dec-16 16:10 33.671114 -117.867656 18 51ft 0kts
24-Dec-16 16:11 33.671114 -117.867656 18 51ft 0kts
24-Dec-16 16:12 33.671114 -117.867656 18 51ft 0kts
24-Dec-16 16:13 33.671208 -117.867612 12 51ft 2kts
24-Dec-16 16:14 33.672060 -117.868145 31 51ft 9kts
24-Dec-16 16:15 33.675844 -117.865396 27 45ft 18kts
24-Dec-16 16:16 33.680345 -117.862693 344 40ft 11kts
24-Dec-16 16:17 33.680611 -117.862993 298 41ft 0kts
24-Dec-16 16:18 33.680684 -117.863165 296 41ft 3kts
24-Dec-16 16:19 33.681312 -117.865281 210 41ft 6kts
24-Dec-16 16:20 33.657299 -117.879369 204 1040ft 134kts
24-Dec-16 16:21 33.614448 -117.882782 185 3161ft 163kts
24-Dec-16 16:22 33.572562 -117.896599 262 5106ft 163kts
24-Dec-16 16:23 33.602700 -117.931909 324 7023ft 164kts
24-Dec-16 16:24 33.641749 -117.959801 326 8681ft 166kts
24-Dec-16 16:25 33.683233 -117.975623 13 10616ft 181kts
24-Dec-16 16:26 33.727445 -117.954697 13 12459ft 177kts
24-Dec-16 16:27 33.771111 -117.935679 3 14103ft 176kts
24-Dec-16 16:28 33.813254 -117.913533 15 15621ft 187kts
24-Dec-16 16:29 33.857776 -117.892921 5 16984ft 184kts
24-Dec-16 16:30 33.902731 -117.873635 10 18432ft 179kts
24-Dec-16 16:31 33.947732 -117.852200 9 19643ft 182kts
24-Dec-16 16:32 33.993442 -117.830248 9 20831ft 186kts
24-Dec-16 16:33 34.036612 -117.809453 11 20936ft 222kts
24-Dec-16 16:34 34.090875 -117.769184 34 20947ft 262kts
24-Dec-16 16:35 34.138665 -117.707897 37 20909ft 277kts
24-Dec-16 16:36 34.189107 -117.640185 38 20854ft 284kts
24-Dec-16 16:37 34.240104 -117.571289 38 20813ft 286kts
24-Dec-16 16:38 34.291357 -117.501903 38 20810ft 286kts
24-Dec-16 16:39 34.343520 -117.431145 38 20808ft 286kts
24-Dec-16 16:40 34.395470 -117.360545 38 20804ft 286kts
24-Dec-16 16:41 34.443594 -117.295023 39 20798ft 285kts
24-Dec-16 16:42 34.496019 -117.223499 39 20798ft 285kts
24-Dec-16 16:43 34.548310 -117.152031 39 20797ft 285kts
24-Dec-16 16:44 34.600806 -117.080203 39 20790ft 286kts
24-Dec-16 16:45 34.653746 -117.007628 41 20778ft 290kts
24-Dec-16 16:46 34.706683 -116.934827 43 20765ft 294kts
24-Dec-16 16:47 34.760206 -116.860986 44 20753ft 297kts
24-Dec-16 16:48 34.814318 -116.786033 44 20753ft 298kts
24-Dec-16 16:49 34.869194 -116.710211 42 20752ft 298kts
24-Dec-16 16:50 34.923093 -116.635338 44 20754ft 298kts
24-Dec-16 16:51 34.973615 -116.556816 57 20749ft 302kts
24-Dec-16 16:52 35.012417 -116.469115 57 20734ft 301kts
24-Dec-16 16:53 35.051099 -116.381839 56 20717ft 300kts
24-Dec-16 16:54 35.087065 -116.300596 57 20712ft 298kts
24-Dec-16 16:55 35.118827 -116.228672 57 20716ft 298kts
24-Dec-16 16:56 35.157212 -116.141570 57 20716ft 298kts
24-Dec-16 16:57 35.195475 -116.054463 57 20505ft 294kts
24-Dec-16 16:58 35.233156 -115.968495 57 19338ft 289kts
24-Dec-16 16:59 35.269604 -115.885120 56 18078ft 282kts
24-Dec-16 17:00 35.303875 -115.806523 56 16953ft 274kts
24-Dec-16 17:01 35.348037 -115.739367 41 15797ft 260kts
24-Dec-16 17:02 35.396355 -115.675201 41 14449ft 267kts
24-Dec-16 17:03 35.444039 -115.611490 41 13028ft 260kts
24-Dec-16 17:04 35.490292 -115.549617 41 11586ft 254kts
24-Dec-16 17:05 35.535421 -115.488999 41 11001ft 244kts
24-Dec-16 17:06 35.579310 -115.429255 42 10934ft 244kts
24-Dec-16 17:07 35.633811 -115.380936 19 9671ft 262kts
24-Dec-16 17:08 35.695566 -115.346784 19 8302ft 263kts
24-Dec-16 17:09 35.758981 -115.311654 19 6815ft 256kts
24-Dec-16 17:10 35.820850 -115.277848 19 5991ft 234kts
24-Dec-16 17:11 35.876133 -115.247178 19 5997ft 215kts
24-Dec-16 17:12 35.928282 -115.206733 29 5032ft 236kts
24-Dec-16 17:13 35.980339 -115.181033 0 4523ft 213kts
24-Dec-16 17:14 36.028119 -115.170940 44 3780ft 181kts
24-Dec-16 17:15 36.017845 -115.136323 176 3224ft 121kts
24-Dec-16 17:16 35.984949 -115.135272 187 2508ft 114kts
24-Dec-16 17:17 35.968890 -115.135511 180 2453ft 19kts
24-Dec-16 17:18 35.967239 -115.136960 294 2456ft 1kts
24-Dec-16 17:19 35.970579 -115.136964 0 2443ft 17kts
24-Dec-16 17:20 35.974972 -115.136911 0 2423ft 16kts
24-Dec-16 17:21 35.976912 -115.137734 263 2414ft 5kts
24-Dec-16 17:22 35.977610 -115.138569 357 2409ft 0kts
24-Dec-16 17:23 35.977610 -115.138569 357 2409ft 0kts

Navigation Log

Ident Type Via Name
Flight plan parsing failed, navigation log unavailable